Sovereign — 9HUE9 — position and weather

sailwx.info

Track history (hours):
 
Tides and Currents Weather Stations Pressure Air Temp Water Temp Dewpoint Dewpoint Depression Visibility Wind Speed Wind Dir Waves Ship Positions

Sovereign

Last reported at 2014-Sep-17 08:05 UTC. Time now 2014-Sep-17 09:39 UTC.
Position N 40°55' E 009°31'.

Length 268 m; draft 7.8 m.

Type: Passenger vessel. MMSI: 249539000.

Date/timePositionNaut miles runAvg speedWind from/ knotsBaromVisibWave heightAir tempDewpointWater temp
2014-Sep-17 08:05N 40°55' E 009°31'0 0.0
2014-Sep-17 07:32N 40°55' E 009°32'0 0.0
2014-Sep-17 06:32N 40°55' E 009°32'3 3.4
2014-Sep-17 05:34N 40°56' E 009°36'54 1.5
2014-Sep-15 16:25N 41°17' E 008°29'1011.7
2014-Sep-15 15:33N 41°17' E 008°16'12312.1
2014-Sep-15 05:23N 41°17' E 005°32'8611.8
2014-Sep-14 22:09N 41°16' E 003°38'2312.5
2014-Sep-14 20:18N 41°16' E 003°07'911.7
2014-Sep-14 19:33N 41°16' E 002°55'1211.7
2014-Sep-14 18:33N 41°16' E 002°40'1311.2
2014-Sep-14 17:25N 41°16' E 002°23'64 4.0
2014-Sep-14 01:30N 41°48' E 003°36'6616.5
2014-Sep-13 21:32N 42°18' E 004°55'1716.4
2014-Sep-13 20:32N 42°26' E 005°15'1616.0
2014-Sep-13 19:33N 42°33' E 005°33'1716.8
2014-Sep-13 18:33N 42°41' E 005°54'1616.1
2014-Sep-13 17:33N 42°49' E 006°13'1716.5
2014-Sep-13 16:33N 42°57' E 006°32'1716.8
2014-Sep-13 15:33N 43°10' E 006°48'1717.2
2014-Sep-13 14:33N 43°23' E 007°03'1717.2
2014-Sep-13 13:33N 43°37' E 007°16'5 4.3
2014-Sep-13 12:23N 43°42' E 007°19'0 0.0
2014-Sep-13 11:23N 43°42' E 007°19'0 0.0
2014-Sep-13 10:23N 43°42' E 007°19'0 0.0
2014-Sep-13 09:29N 43°42' E 007°19'0 0.0
2014-Sep-13 08:30N 43°42' E 007°19'0 0.0
2014-Sep-13 07:18N 43°42' E 007°19'0 0.1
2014-Sep-13 06:30N 43°42' E 007°19'0 0.0
2014-Sep-13 05:24N 43°42' E 007°19'0 0.0
2014-Sep-13 04:33N 43°42' E 007°19'9 8.8
2014-Sep-13 03:33N 43°39' E 007°30'1211.5
2014-Sep-13 02:31N 43°39' E 007°47'1212.4
2014-Sep-13 01:32N 43°41' E 008°04'1212.4
2014-Sep-13 00:32N 43°44' E 008°20'1212.1
2014-Sep-12 23:33N 43°47' E 008°36'1212.1
2014-Sep-12 22:33N 43°50' E 008°52'1212.1
2014-Sep-12 21:33N 43°54' E 009°08'1212.1
2014-Sep-12 20:33N 43°56' E 009°25'1212.3
2014-Sep-12 19:33N 43°59' E 009°41'9 8.8
2014-Sep-12 18:33N 44°04' E 009°51'3 2.5
2014-Sep-12 17:31N 44°06' E 009°50'0 0.0
2014-Sep-12 16:31N 44°06' E 009°50'0 0.0
2014-Sep-12 15:31N 44°06' E 009°50'0 0.0
2014-Sep-12 14:31N 44°06' E 009°50'0 0.0
2014-Sep-12 13:31N 44°06' E 009°50'0 0.0
2014-Sep-12 12:31N 44°06' E 009°50'0 0.0
2014-Sep-12 11:31N 44°06' E 009°50'0 0.0
2014-Sep-12 10:31N 44°06' E 009°50'0 0.0
2014-Sep-12 09:31N 44°06' E 009°50'0 0.0
2014-Sep-12 08:31N 44°06' E 009°50'0 0.0
2014-Sep-12 07:31N 44°06' E 009°50'0 0.0
2014-Sep-12 06:31N 44°06' E 009°50'0 0.1
2014-Sep-12 05:33N 44°06' E 009°50'8 8.0
2014-Sep-12 04:33N 43°60' E 009°56'1312.6
2014-Sep-12 03:33N 43°48' E 009°51'1312.6
2014-Sep-12 02:33N 43°35' E 009°46'1414.4
2014-Sep-12 01:33N 43°21' E 009°43'14513.2
2014-Sep-11 14:33N 40°56' E 009°38'5 4.8
2014-Sep-11 13:33N 40°55' E 009°31'0 0.0
2014-Sep-11 12:33N 40°55' E 009°31'0 0.0
2014-Sep-11 09:21N 40°55' E 009°31'0 0.0
2014-Sep-11 08:33N 40°55' E 009°31'0 0.0
2014-Sep-11 07:33N 40°55' E 009°31'0 0.2
2014-Sep-11 05:34N 40°55' E 009°32'197 5.7
2014-Sep-09 19:07N 40°38' E 013°51'55 2.9
2014-Sep-09 00:33N 39°43' E 013°52'1414.4
2014-Sep-08 23:33N 39°29' E 013°48'1514.4
2014-Sep-08 22:33N 39°15' E 013°44'1414.4
2014-Sep-08 21:33N 39°01' E 013°40'1514.5
2014-Sep-08 20:30N 38°46' E 013°36'1414.4
2014-Sep-08 19:33N 38°33' E 013°32'1414.3
2014-Sep-08 18:33N 38°19' E 013°28'1212.3
2014-Sep-08 17:33N 38°07' E 013°23'1 0.6
2014-Sep-08 16:32N 38°08' E 013°22'0 0.0
2014-Sep-08 15:32N 38°08' E 013°22'0 0.0
2014-Sep-08 14:32N 38°08' E 013°22'0 0.0
2014-Sep-08 13:29N 38°08' E 013°22'0 0.0
2014-Sep-08 12:32N 38°08' E 013°22'0 0.0
2014-Sep-08 11:32N 38°08' E 013°22'0 0.0
2014-Sep-08 10:29N 38°08' E 013°22'0 0.0
2014-Sep-08 09:32N 38°08' E 013°22'0 0.0
2014-Sep-08 08:32N 38°08' E 013°22'0 0.0
2014-Sep-08 07:32N 38°08' E 013°22'0 0.0
2014-Sep-08 06:32N 38°08' E 013°22'0 0.0
2014-Sep-08 05:32N 38°08' E 013°22'1 1.4
2014-Sep-08 04:33N 38°08' E 013°24'8 7.9
2014-Sep-08 03:33N 38°16' E 013°25'1211.6
2014-Sep-08 02:34N 38°19' E 013°11'1716.1
2014-Sep-08 01:30N 38°21' E 012°49'14616.3
2014-Sep-07 16:32N 38°33' E 009°43'1716.7
2014-Sep-07 15:32N 38°35' E 009°22'1616.3
2014-Sep-07 14:33N 38°36' E 009°01'1716.3
2014-Sep-07 13:32N 38°38' E 008°40'1616.1
2014-Sep-07 12:34N 38°42' E 008°20'  
Track history (hours):
 
Tides and Currents Weather Stations Pressure Air Temp Water Temp Dewpoint Dewpoint Depression Visibility Wind Speed Wind Dir Waves Ship Positions

Sovereign

Last reported at 2014-Sep-17 08:05 UTC. Time now 2014-Sep-17 09:39 UTC.
Position N 40°55' E 009°31'.

Length 268 m; draft 7.8 m.

Type: Passenger vessel. MMSI: 249539000.

Date/timePositionNaut miles runAvg speedWind from/ knotsBaromVisibWave heightAir tempDewpointWater temp
2014-Sep-17 08:05N 40°55' E 009°31'0 0.0
2014-Sep-17 07:32N 40°55' E 009°32'0 0.0
2014-Sep-17 06:32N 40°55' E 009°32'3 3.4
2014-Sep-17 05:34N 40°56' E 009°36'54 1.5
2014-Sep-15 16:25N 41°17' E 008°29'1011.7
2014-Sep-15 15:33N 41°17' E 008°16'12312.1
2014-Sep-15 05:23N 41°17' E 005°32'8611.8
2014-Sep-14 22:09N 41°16' E 003°38'2312.5
2014-Sep-14 20:18N 41°16' E 003°07'911.7
2014-Sep-14 19:33N 41°16' E 002°55'1211.7
2014-Sep-14 18:33N 41°16' E 002°40'1311.2
2014-Sep-14 17:25N 41°16' E 002°23'64 4.0
2014-Sep-14 01:30N 41°48' E 003°36'6616.5
2014-Sep-13 21:32N 42°18' E 004°55'1716.4
2014-Sep-13 20:32N 42°26' E 005°15'1616.0
2014-Sep-13 19:33N 42°33' E 005°33'1716.8
2014-Sep-13 18:33N 42°41' E 005°54'1616.1
2014-Sep-13 17:33N 42°49' E 006°13'1716.5
2014-Sep-13 16:33N 42°57' E 006°32'1716.8
2014-Sep-13 15:33N 43°10' E 006°48'1717.2
2014-Sep-13 14:33N 43°23' E 007°03'1717.2
2014-Sep-13 13:33N 43°37' E 007°16'5 4.3
2014-Sep-13 12:23N 43°42' E 007°19'0 0.0
2014-Sep-13 11:23N 43°42' E 007°19'0 0.0
2014-Sep-13 10:23N 43°42' E 007°19'0 0.0
2014-Sep-13 09:29N 43°42' E 007°19'0 0.0
2014-Sep-13 08:30N 43°42' E 007°19'0 0.0
2014-Sep-13 07:18N 43°42' E 007°19'0 0.1
2014-Sep-13 06:30N 43°42' E 007°19'0 0.0
2014-Sep-13 05:24N 43°42' E 007°19'0 0.0
2014-Sep-13 04:33N 43°42' E 007°19'9 8.8
2014-Sep-13 03:33N 43°39' E 007°30'1211.5
2014-Sep-13 02:31N 43°39' E 007°47'1212.4
2014-Sep-13 01:32N 43°41' E 008°04'1212.4
2014-Sep-13 00:32N 43°44' E 008°20'1212.1
2014-Sep-12 23:33N 43°47' E 008°36'1212.1
2014-Sep-12 22:33N 43°50' E 008°52'1212.1
2014-Sep-12 21:33N 43°54' E 009°08'1212.1
2014-Sep-12 20:33N 43°56' E 009°25'1212.3
2014-Sep-12 19:33N 43°59' E 009°41'9 8.8
2014-Sep-12 18:33N 44°04' E 009°51'3 2.5
2014-Sep-12 17:31N 44°06' E 009°50'0 0.0
2014-Sep-12 16:31N 44°06' E 009°50'0 0.0
2014-Sep-12 15:31N 44°06' E 009°50'0 0.0
2014-Sep-12 14:31N 44°06' E 009°50'0 0.0
2014-Sep-12 13:31N 44°06' E 009°50'0 0.0
2014-Sep-12 12:31N 44°06' E 009°50'0 0.0
2014-Sep-12 11:31N 44°06' E 009°50'0 0.0
2014-Sep-12 10:31N 44°06' E 009°50'0 0.0
2014-Sep-12 09:31N 44°06' E 009°50'0 0.0
2014-Sep-12 08:31N 44°06' E 009°50'0 0.0
2014-Sep-12 07:31N 44°06' E 009°50'0 0.0
2014-Sep-12 06:31N 44°06' E 009°50'0 0.1
2014-Sep-12 05:33N 44°06' E 009°50'8 8.0
2014-Sep-12 04:33N 43°60' E 009°56'1312.6
2014-Sep-12 03:33N 43°48' E 009°51'1312.6
2014-Sep-12 02:33N 43°35' E 009°46'1414.4
2014-Sep-12 01:33N 43°21' E 009°43'14513.2
2014-Sep-11 14:33N 40°56' E 009°38'5 4.8
2014-Sep-11 13:33N 40°55' E 009°31'0 0.0
2014-Sep-11 12:33N 40°55' E 009°31'0 0.0
2014-Sep-11 09:21N 40°55' E 009°31'0 0.0
2014-Sep-11 08:33N 40°55' E 009°31'0 0.0
2014-Sep-11 07:33N 40°55' E 009°31'0 0.2
2014-Sep-11 05:34N 40°55' E 009°32'197 5.7
2014-Sep-09 19:07N 40°38' E 013°51'55 2.9
2014-Sep-09 00:33N 39°43' E 013°52'1414.4
2014-Sep-08 23:33N 39°29' E 013°48'1514.4
2014-Sep-08 22:33N 39°15' E 013°44'1414.4
2014-Sep-08 21:33N 39°01' E 013°40'1514.5
2014-Sep-08 20:30N 38°46' E 013°36'1414.4
2014-Sep-08 19:33N 38°33' E 013°32'1414.3
2014-Sep-08 18:33N 38°19' E 013°28'1212.3
2014-Sep-08 17:33N 38°07' E 013°23'1 0.6
2014-Sep-08 16:32N 38°08' E 013°22'0 0.0
2014-Sep-08 15:32N 38°08' E 013°22'0 0.0
2014-Sep-08 14:32N 38°08' E 013°22'0 0.0
2014-Sep-08 13:29N 38°08' E 013°22'0 0.0
2014-Sep-08 12:32N 38°08' E 013°22'0 0.0
2014-Sep-08 11:32N 38°08' E 013°22'0 0.0
2014-Sep-08 10:29N 38°08' E 013°22'0 0.0
2014-Sep-08 09:32N 38°08' E 013°22'0 0.0
2014-Sep-08 08:32N 38°08' E 013°22'0 0.0
2014-Sep-08 07:32N 38°08' E 013°22'0 0.0
2014-Sep-08 06:32N 38°08' E 013°22'0 0.0
2014-Sep-08 05:32N 38°08' E 013°22'1 1.4
2014-Sep-08 04:33N 38°08' E 013°24'8 7.9
2014-Sep-08 03:33N 38°16' E 013°25'1211.6
2014-Sep-08 02:34N 38°19' E 013°11'1716.1
2014-Sep-08 01:30N 38°21' E 012°49'14616.3
2014-Sep-07 16:32N 38°33' E 009°43'1716.7
2014-Sep-07 15:32N 38°35' E 009°22'1616.3
2014-Sep-07 14:33N 38°36' E 009°01'1716.3
2014-Sep-07 13:32N 38°38' E 008°40'1616.1
2014-Sep-07 12:34N 38°42' E 008°20'  

Dump ship's entire track history